Huinan, China
Current Conditions -  °F | °C
As of 5:30 AM on Sunday 23 Nov 2014 (Local Time) from ZSPD Reporting Station
Clear Clear  
Wind Chill: 61°   Ceiling: Unl
Heat Index: 61°   Visibility: 4mi
Dew Point: 61°   Wind: 7mph
Humidity: 100%   Direction: 80°E
Pressure: 30.15"   Gusts: NA
Location:  31.05°N, 121.75°E
Report Text: ZSPD 222130Z 08003MPS 010V100 6000 NSC 16/16 Q1021 NOSIG
Loading
Personal Weather Stations






























Interactive Weather Map New forecast layout! Learn more

10-Day Weather Forecast

Advertisements
Track Severe Weather on mobile